Time;durP1;ratioP1;P1;durP2;ratioP2;P2;SDS_P1;SDS_P2;PMS_P1;PMS_P2;Temp;Humidity;BMP_temperature;BMP_pressure;BME280_temperature;BME280_humidity;BME280_pressure;Samples;Min_cycle;Max_cycle;Signal;HPM_P1;HPM_P2
2023/12/22 00:00:41;;;;;;;4.43;1.27;;;7.00;99.90;;;;;;5016411;28;20229;-77
2023/12/22 00:03:09;;;;;;;6.10;1.57;;;6.90;99.90;;;;;;5014763;28;20241;-77
2023/12/22 00:05:36;;;;;;;9.30;1.43;;;6.90;99.90;;;;;;5014495;28;20204;-77
2023/12/22 00:08:04;;;;;;;4.03;1.63;;;6.90;99.90;;;;;;5030818;28;20197;-77
2023/12/22 00:10:33;;;;;;;3.90;1.60;;;6.90;99.90;;;;;;5032945;28;20195;-77
2023/12/22 00:13:01;;;;;;;8.80;3.80;;;6.90;99.90;;;;;;5036048;28;20227;-77
2023/12/22 00:15:28;;;;;;;8.33;2.80;;;6.80;99.90;;;;;;5015479;28;20211;-77
2023/12/22 00:17:55;;;;;;;8.93;2.47;;;6.80;99.90;;;;;;5017133;28;20222;-77
2023/12/22 00:20:23;;;;;;;6.57;2.20;;;6.80;99.90;;;;;;5036450;28;20217;-77
2023/12/22 00:22:50;;;;;;;14.03;4.13;;;6.80;99.90;;;;;;5035970;28;20575;-77
2023/12/22 00:25:17;;;;;;;9.33;2.30;;;6.70;99.90;;;;;;5041337;28;20190;-77
2023/12/22 00:27:46;;;;;;;9.90;3.10;;;6.70;99.90;;;;;;5035937;28;20202;-77
2023/12/22 00:30:14;;;;;;;9.90;3.13;;;6.60;99.90;;;;;;5036083;28;20254;-77
2023/12/22 00:32:42;;;;;;;10.80;2.13;;;6.70;99.90;;;;;;5017617;28;20229;-76
2023/12/22 00:35:09;;;;;;;9.97;2.27;;;6.70;99.90;;;;;;5036460;28;20202;-77
2023/12/22 00:37:37;;;;;;;6.20;1.97;;;6.70;99.90;;;;;;5018075;28;20220;-77
2023/12/22 00:40:07;;;;;;;4.63;1.53;;;6.70;99.90;;;;;;5036401;28;20206;-77
2023/12/22 00:42:34;;;;;;;6.73;2.30;;;6.70;99.90;;;;;;5035739;28;20711;-77
2023/12/22 00:45:03;;;;;;;6.63;1.53;;;6.80;99.90;;;;;;5018016;28;20260;-77
2023/12/22 00:47:30;;;;;;;4.60;2.17;;;6.70;99.90;;;;;;5039746;28;20193;-77
2023/12/22 00:49:58;;;;;;;5.83;2.10;;;6.70;99.90;;;;;;5017722;28;20223;-77
2023/12/22 00:52:26;;;;;;;5.97;1.53;;;6.70;99.90;;;;;;5033582;28;20237;-77
2023/12/22 00:54:53;;;;;;;7.63;2.77;;;6.70;99.90;;;;;;5017314;28;20550;-77
2023/12/22 00:57:21;;;;;;;6.77;1.57;;;6.70;99.90;;;;;;5045083;28;20188;-77
2023/12/22 00:59:48;;;;;;;6.93;1.40;;;6.80;99.90;;;;;;5029178;28;20622;-77
2023/12/22 01:02:18;;;;;;;9.63;1.50;;;6.80;99.90;;;;;;5019250;28;20198;-77
2023/12/22 01:04:45;;;;;;;5.97;1.40;;;6.80;99.90;;;;;;5018751;28;20217;-77
2023/12/22 01:07:14;;;;;;;5.23;1.50;;;6.80;99.90;;;;;;5017785;28;20198;-77
2023/12/22 01:09:41;;;;;;;6.33;1.70;;;6.80;99.90;;;;;;5020922;28;20198;-77
2023/12/22 01:12:10;;;;;;;5.63;1.77;;;6.80;99.90;;;;;;5040533;28;20205;-77
2023/12/22 01:14:38;;;;;;;5.73;1.43;;;6.80;99.90;;;;;;5017906;28;20217;-77
2023/12/22 01:17:05;;;;;;;5.70;1.37;;;6.80;99.90;;;;;;5018438;28;20206;-77
2023/12/22 01:19:34;;;;;;;7.93;1.90;;;6.80;99.90;;;;;;5036109;28;20222;-77
2023/12/22 01:22:01;;;;;;;5.73;1.67;;;6.80;99.90;;;;;;5025436;28;20198;-77
2023/12/22 01:24:29;;;;;;;5.83;1.87;;;6.80;99.90;;;;;;5017829;28;20202;-77
2023/12/22 01:26:57;;;;;;;12.10;2.30;;;6.80;99.90;;;;;;5018097;28;20197;-77
2023/12/22 01:29:24;;;;;;;6.40;1.73;;;6.90;99.90;;;;;;5034808;28;20687;-77
2023/12/22 01:31:51;;;;;;;11.23;2.20;;;6.90;99.90;;;;;;5017935;28;20218;-77
2023/12/22 01:34:19;;;;;;;6.10;2.10;;;6.90;99.90;;;;;;5034268;28;20249;-77
2023/12/22 01:36:47;;;;;;;7.07;1.90;;;6.80;99.90;;;;;;5034976;28;20213;-77
2023/12/22 01:39:15;;;;;;;7.43;2.00;;;6.90;99.90;;;;;;5020184;28;20202;-77
2023/12/22 01:41:42;;;;;;;6.67;1.80;;;6.90;99.90;;;;;;5050706;28;20210;-77
2023/12/22 01:44:09;;;;;;;6.90;1.87;;;6.90;99.90;;;;;;5035698;28;20218;-77
2023/12/22 01:46:37;;;;;;;5.63;1.83;;;7.00;99.90;;;;;;5026467;28;20207;-77
2023/12/22 01:49:06;;;;;;;5.30;1.30;;;7.00;99.90;;;;;;5035865;28;20195;-77
2023/12/22 01:51:35;;;;;;;7.50;1.53;;;7.00;99.90;;;;;;5024405;28;20186;-76
2023/12/22 01:54:05;;;;;;;4.67;1.17;;;7.10;99.90;;;;;;5051885;28;20221;-77
2023/12/22 01:56:33;;;;;;;4.53;1.30;;;7.10;99.90;;;;;;5039167;28;20191;-77
2023/12/22 01:59:02;;;;;;;8.53;1.67;;;7.10;99.90;;;;;;5009611;28;20210;-77
2023/12/22 02:01:30;;;;;;;5.97;1.33;;;7.00;99.90;;;;;;5017592;28;20225;-77
2023/12/22 02:03:59;;;;;;;2.70;1.10;;;7.10;99.90;;;;;;5016844;28;20218;-77
2023/12/22 02:06:27;;;;;;;4.13;1.07;;;6.90;99.90;;;;;;5000987;28;20203;-77
2023/12/22 02:08:55;;;;;;;3.33;0.80;;;6.80;99.90;;;;;;5010013;28;20205;-77
2023/12/22 02:11:23;;;;;;;4.43;1.20;;;6.80;99.90;;;;;;5052351;28;20174;-77
2023/12/22 02:13:51;;;;;;;3.37;1.17;;;6.70;99.90;;;;;;5016597;28;20245;-77
2023/12/22 02:16:23;;;;;;;3.43;1.00;;;6.70;99.90;;;;;;5016114;28;20206;-77
2023/12/22 02:18:56;;;;;;;5.27;0.93;;;6.60;99.90;;;;;;5016693;28;20209;-77
2023/12/22 02:21:23;;;;;;;2.30;0.87;;;6.60;99.90;;;;;;5015939;28;20230;-77
2023/12/22 02:23:52;;;;;;;4.30;0.90;;;6.60;99.90;;;;;;5016357;28;20233;-77
2023/12/22 02:26:28;;;;;;;2.40;0.70;;;6.60;99.90;;;;;;5016185;28;20209;-77
2023/12/22 02:28:58;;;;;;;3.27;0.90;;;6.50;99.90;;;;;;5015858;28;20221;-77
2023/12/22 02:31:39;;;;;;;2.13;0.70;;;6.50;99.90;;;;;;5015842;28;20213;-77
2023/12/22 02:34:12;;;;;;;3.77;1.10;;;6.60;99.90;;;;;;5034114;28;20217;-77
2023/12/22 02:36:41;;;;;;;2.17;1.07;;;6.60;99.90;;;;;;5005563;28;20199;-77
2023/12/22 02:39:12;;;;;;;5.67;1.07;;;6.60;99.90;;;;;;5021114;28;20208;-77
2023/12/22 02:41:40;;;;;;;4.00;0.97;;;6.60;99.90;;;;;;5044423;28;20215;-77
2023/12/22 02:44:08;;;;;;;4.50;0.90;;;6.60;99.90;;;;;;5015586;28;20229;-77
2023/12/22 02:46:35;;;;;;;5.60;1.13;;;6.60;99.90;;;;;;5017947;28;20211;-77
2023/12/22 02:49:03;;;;;;;2.43;0.83;;;6.60;99.90;;;;;;5016542;28;20215;-76
2023/12/22 02:51:30;;;;;;;5.90;1.30;;;6.60;99.90;;;;;;5018441;28;20202;-77
2023/12/22 02:53:57;;;;;;;1.93;0.80;;;6.60;99.90;;;;;;5015425;28;20226;-77
2023/12/22 02:56:26;;;;;;;3.17;0.90;;;6.50;99.90;;;;;;5015783;28;20200;-77
2023/12/22 02:58:53;;;;;;;3.97;1.20;;;6.50;99.90;;;;;;5033252;28;20203;-77
2023/12/22 03:01:21;;;;;;;5.03;1.40;;;6.50;99.90;;;;;;5032742;28;20228;-77
2023/12/22 03:03:48;;;;;;;3.07;1.23;;;6.50;99.90;;;;;;5016764;28;20230;-77
2023/12/22 03:06:16;;;;;;;5.47;1.20;;;6.50;99.90;;;;;;5009206;28;20197;-77
2023/12/22 03:08:43;;;;;;;3.87;1.27;;;6.50;99.90;;;;;;5020320;28;20201;-77
2023/12/22 03:11:10;;;;;;;4.27;1.33;;;6.50;99.90;;;;;;5015223;28;20193;-75
2023/12/22 03:13:39;;;;;;;3.70;1.10;;;6.60;99.90;;;;;;5015078;28;20245;-76
2023/12/22 03:16:09;;;;;;;4.50;1.23;;;6.50;99.90;;;;;;5014608;28;20204;-77
2023/12/22 03:18:38;;;;;;;4.23;1.20;;;6.50;99.90;;;;;;5017355;28;20196;-77
2023/12/22 03:21:06;;;;;;;5.03;1.30;;;6.60;99.90;;;;;;5041649;28;20226;-77
2023/12/22 03:23:33;;;;;;;5.30;1.00;;;6.70;99.90;;;;;;5012709;28;20232;-77
2023/12/22 03:26:04;;;;;;;5.63;1.80;;;6.70;99.90;;;;;;5023356;28;20206;-77
2023/12/22 03:28:33;;;;;;;5.70;1.33;;;6.70;99.90;;;;;;5014882;28;20681;-77
2023/12/22 03:31:02;;;;;;;5.50;1.20;;;6.80;99.90;;;;;;5030492;28;20213;-77
2023/12/22 03:33:29;;;;;;;6.13;1.43;;;6.80;99.90;;;;;;5014273;28;20719;-77
2023/12/22 03:35:56;;;;;;;6.27;1.57;;;6.80;99.90;;;;;;5032760;28;20202;-76
2023/12/22 03:38:24;;;;;;;5.23;1.23;;;6.90;99.90;;;;;;5014970;28;20210;-77
2023/12/22 03:40:51;;;;;;;8.67;1.53;;;6.90;99.90;;;;;;5014826;28;20225;-77
2023/12/22 03:43:18;;;;;;;7.43;1.50;;;6.80;99.90;;;;;;5032308;28;20228;-77
2023/12/22 03:45:46;;;;;;;8.80;2.10;;;6.80;99.90;;;;;;5014876;28;20231;-77
2023/12/22 03:48:14;;;;;;;6.13;1.17;;;6.90;99.90;;;;;;5014883;28;20213;-77
2023/12/22 03:50:42;;;;;;;6.93;1.67;;;6.80;99.90;;;;;;5014399;28;20201;-77
2023/12/22 03:53:09;;;;;;;6.53;1.40;;;6.80;99.90;;;;;;5014205;28;20311;-77
2023/12/22 03:55:37;;;;;;;10.00;2.10;;;6.80;99.90;;;;;;5032959;28;20205;-77
2023/12/22 03:58:04;;;;;;;8.07;1.90;;;6.90;99.90;;;;;;5032521;28;20675;-77
2023/12/22 04:00:32;;;;;;;7.80;1.67;;;6.80;99.90;;;;;;5033040;28;20206;-77
2023/12/22 04:02:59;;;;;;;5.93;1.87;;;6.80;99.90;;;;;;5014344;28;20240;-77
2023/12/22 04:05:28;;;;;;;8.73;2.33;;;6.70;99.90;;;;;;5014660;28;20202;-76
2023/12/22 04:07:55;;;;;;;8.70;1.67;;;6.70;99.90;;;;;;4995871;28;20537;-77
2023/12/22 04:10:22;;;;;;;8.50;1.93;;;6.50;99.90;;;;;;5033992;28;20193;-76
2023/12/22 04:12:50;;;;;;;3.17;1.00;;;6.30;99.90;;;;;;5042395;28;20222;-77
2023/12/22 04:15:17;;;;;;;2.27;1.10;;;5.80;99.90;;;;;;5032691;28;20184;-77
2023/12/22 04:17:45;;;;;;;1.73;0.90;;;5.60;99.90;;;;;;5032465;28;20203;-77
2023/12/22 04:20:13;;;;;;;5.37;1.03;;;5.50;99.90;;;;;;5014360;28;20576;-77
2023/12/22 04:22:41;;;;;;;3.80;0.57;;;5.50;99.90;;;;;;5015670;28;20233;-76
2023/12/22 04:25:09;;;;;;;2.17;0.43;;;5.60;99.90;;;;;;5031082;28;20222;-78
2023/12/22 04:27:36;;;;;;;1.03;0.57;;;5.70;99.90;;;;;;5016276;28;20204;-79
2023/12/22 04:30:04;;;;;;;1.83;0.80;;;5.70;99.90;;;;;;5034048;28;20200;-79
2023/12/22 04:32:32;;;;;;;1.83;0.70;;;5.80;99.90;;;;;;5015565;28;20211;-78
2023/12/22 04:34:59;;;;;;;3.43;0.67;;;5.90;99.90;;;;;;5033878;28;20538;-79
2023/12/22 04:37:27;;;;;;;4.03;1.10;;;6.00;99.90;;;;;;5034593;28;20201;-79
2023/12/22 04:39:55;;;;;;;3.13;0.80;;;6.00;99.90;;;;;;5022365;28;20209;-79
2023/12/22 04:42:25;;;;;;;2.43;0.70;;;6.00;99.90;;;;;;5020916;28;20228;-78
2023/12/22 04:44:52;;;;;;;3.60;0.90;;;6.00;99.90;;;;;;5033912;28;20188;-79
2023/12/22 04:47:20;;;;;;;3.50;0.93;;;6.00;99.90;;;;;;5034435;28;20201;-79
2023/12/22 04:49:48;;;;;;;1.43;0.90;;;6.00;99.90;;;;;;5026579;28;20209;-77
2023/12/22 04:52:15;;;;;;;1.70;0.87;;;6.00;99.90;;;;;;5014998;28;20192;-77
2023/12/22 04:54:43;;;;;;;3.20;1.47;;;5.90;99.90;;;;;;5016254;28;20216;-76
2023/12/22 04:57:11;;;;;;;5.37;1.13;;;5.90;99.90;;;;;;5014733;28;20197;-77
2023/12/22 04:59:39;;;;;;;6.90;1.10;;;5.90;99.90;;;;;;5032444;28;20198;-77
2023/12/22 05:02:06;;;;;;;3.83;1.13;;;6.00;99.90;;;;;;5031841;28;20206;-77
2023/12/22 05:04:34;;;;;;;4.10;0.97;;;5.90;99.90;;;;;;5017856;28;20217;-79
2023/12/22 05:07:06;;;;;;;5.17;1.27;;;6.00;99.90;;;;;;5018681;28;20572;-79
2023/12/22 05:09:34;;;;;;;9.57;1.90;;;6.10;99.90;;;;;;5018827;28;20216;-77
2023/12/22 05:12:02;;;;;;;6.67;1.43;;;6.10;99.90;;;;;;5018666;28;20205;-77
2023/12/22 05:14:30;;;;;;;2.63;1.00;;;6.10;99.90;;;;;;5050607;28;20205;-78
2023/12/22 05:16:58;;;;;;;4.90;1.20;;;6.10;99.90;;;;;;5050031;28;20193;-79
2023/12/22 05:19:25;;;;;;;3.07;1.30;;;6.00;99.90;;;;;;5030548;28;20651;-79
2023/12/22 05:21:55;;;;;;;3.10;1.03;;;6.00;99.90;;;;;;5017920;28;20229;-79
2023/12/22 05:24:23;;;;;;;4.07;1.40;;;6.00;99.90;;;;;;5020500;28;20222;-79
2023/12/22 05:26:50;;;;;;;5.00;1.30;;;6.00;99.90;;;;;;5020801;28;20217;-79
2023/12/22 05:29:18;;;;;;;6.33;1.30;;;6.10;99.90;;;;;;5036174;28;20197;-77
2023/12/22 05:31:46;;;;;;;7.13;1.47;;;6.10;99.90;;;;;;5018006;28;20203;-79
2023/12/22 05:34:14;;;;;;;4.93;1.10;;;6.10;99.90;;;;;;5018642;28;20558;-78
2023/12/22 05:36:41;;;;;;;3.60;1.30;;;6.20;99.90;;;;;;5015489;28;20683;-79
2023/12/22 05:39:09;;;;;;;6.27;1.27;;;6.20;99.90;;;;;;5030099;28;20202;-79
2023/12/22 05:41:37;;;;;;;5.87;1.30;;;6.20;99.90;;;;;;5018544;28;20224;-79
2023/12/22 05:44:05;;;;;;;3.73;0.90;;;6.20;99.90;;;;;;5019370;28;20232;-79
2023/12/22 05:46:37;;;;;;;3.10;1.37;;;6.20;99.90;;;;;;5018793;28;20675;-79
2023/12/22 05:49:06;;;;;;;5.27;1.80;;;6.20;99.90;;;;;;5036582;28;20205;-77
2023/12/22 05:51:38;;;;;;;3.83;1.50;;;6.20;99.90;;;;;;5034841;28;20207;-77
2023/12/22 05:54:06;;;;;;;4.40;1.50;;;6.30;99.90;;;;;;5038013;28;20225;-77
2023/12/22 05:56:33;;;;;;;6.57;1.53;;;6.30;99.90;;;;;;5035354;28;20208;-77
2023/12/22 05:59:01;;;;;;;5.67;1.30;;;6.30;99.90;;;;;;5035087;28;20214;-77
2023/12/22 06:01:28;;;;;;;4.77;1.37;;;6.30;99.90;;;;;;5016704;28;20192;-77
2023/12/22 06:03:56;;;;;;;5.47;1.43;;;6.30;99.90;;;;;;5016252;28;20223;-77
2023/12/22 06:06:24;;;;;;;4.50;1.33;;;6.30;99.90;;;;;;5016948;28;20206;-77
2023/12/22 06:08:52;;;;;;;3.70;1.43;;;6.30;99.90;;;;;;5034715;28;20204;-77
2023/12/22 06:11:19;;;;;;;7.47;2.13;;;6.30;99.90;;;;;;5015876;28;20209;-77
2023/12/22 06:13:47;;;;;;;4.47;1.13;;;6.30;99.90;;;;;;5042847;28;20217;-77
2023/12/22 06:16:15;;;;;;;8.67;2.10;;;6.30;99.90;;;;;;5022159;28;20589;-77
2023/12/22 06:18:44;;;;;;;6.03;1.43;;;6.30;99.90;;;;;;5034240;28;20210;-77
2023/12/22 06:21:12;;;;;;;5.53;2.27;;;6.30;99.90;;;;;;5016318;28;20213;-77
2023/12/22 06:23:41;;;;;;;4.57;1.80;;;6.40;99.90;;;;;;5016535;28;20234;-77
2023/12/22 06:26:10;;;;;;;6.73;1.67;;;6.40;99.90;;;;;;5017068;28;20682;-77
2023/12/22 06:28:39;;;;;;;8.00;1.97;;;6.40;99.90;;;;;;5016032;28;20210;-77
2023/12/22 06:31:08;;;;;;;8.57;1.90;;;6.40;99.90;;;;;;5016842;28;20256;-77
2023/12/22 06:33:35;;;;;;;8.37;1.83;;;6.40;99.90;;;;;;5015625;28;20219;-77
2023/12/22 06:36:03;;;;;;;10.60;2.47;;;6.40;99.90;;;;;;5016193;28;20202;-77
2023/12/22 06:38:32;;;;;;;9.43;2.17;;;6.40;99.90;;;;;;5034306;28;20179;-77
2023/12/22 06:41:01;;;;;;;6.63;1.90;;;6.50;99.90;;;;;;5015863;28;20208;-76
2023/12/22 06:43:28;;;;;;;11.43;1.63;;;7.10;99.90;;;;;;5015382;28;20545;-76
2023/12/22 06:45:56;;;;;;;6.27;2.23;;;7.50;99.90;;;;;;5015676;28;20206;-76
2023/12/22 06:48:23;;;;;;;6.33;2.20;;;7.90;99.90;;;;;;5009346;28;20221;-77
2023/12/22 06:50:50;;;;;;;5.50;2.13;;;7.00;99.90;;;;;;5014953;28;20562;-78
2023/12/22 06:53:18;;;;;;;5.20;1.80;;;6.60;99.90;;;;;;5016248;28;20226;-77
2023/12/22 06:55:53;;;;;;;7.33;2.23;;;6.60;99.90;;;;;;5020629;28;20218;-78
2023/12/22 06:58:25;;;;;;;6.63;1.60;;;6.50;99.90;;;;;;5016086;28;20206;-77
2023/12/22 07:00:53;;;;;;;5.63;2.00;;;6.30;99.90;;;;;;5016242;28;20198;-77
2023/12/22 07:03:30;;;;;;;6.63;1.87;;;6.30;99.90;;;;;;5012482;28;20231;-78
2023/12/22 07:05:57;;;;;;;8.47;2.17;;;6.40;99.90;;;;;;5013555;28;20214;-78
2023/12/22 07:08:25;;;;;;;6.57;1.93;;;6.40;99.90;;;;;;5014242;28;20193;-78
2023/12/22 07:10:52;;;;;;;8.97;2.00;;;6.50;99.90;;;;;;5012833;28;20198;-77
2023/12/22 07:13:20;;;;;;;9.47;2.67;;;6.50;99.90;;;;;;5015396;28;20226;-77
2023/12/22 07:15:48;;;;;;;5.83;2.43;;;6.50;99.90;;;;;;5015615;28;20216;-77
2023/12/22 07:18:40;;;;;;;10.87;3.10;;;6.40;99.90;;;;;;5017078;28;20536;-77
2023/12/22 07:21:07;;;;;;;7.07;2.17;;;6.40;99.90;;;;;;5036723;23;20229;-75
2023/12/22 07:23:35;;;;;;;5.90;2.10;;;6.50;99.90;;;;;;5027311;28;20570;-76
2023/12/22 07:26:02;;;;;;;9.93;2.83;;;6.50;99.90;;;;;;5016999;28;20209;-75
2023/12/22 07:28:30;;;;;;;8.13;2.30;;;6.40;99.90;;;;;;5009854;28;20205;-75
2023/12/22 07:30:58;;;;;;;8.10;2.03;;;6.30;99.90;;;;;;5009942;28;20227;-75
2023/12/22 07:34:05;;;;;;;11.83;2.90;;;6.30;99.90;;;;;;5008509;28;20662;-76
2023/12/22 07:36:32;;;;;;;9.50;2.47;;;6.40;99.90;;;;;;5001060;28;20206;-75
2023/12/22 07:39:00;;;;;;;7.90;2.67;;;6.40;99.90;;;;;;4995355;28;20214;-75
2023/12/22 07:41:28;;;;;;;9.20;2.50;;;6.40;99.90;;;;;;4978673;28;20224;-74
2023/12/22 07:43:55;;;;;;;12.23;3.03;;;6.40;99.90;;;;;;5032538;28;20214;-75
2023/12/22 07:46:24;;;;;;;12.47;2.97;;;6.50;99.90;;;;;;5020405;28;20183;-75
2023/12/22 07:48:51;;;;;;;9.97;3.13;;;6.50;99.90;;;;;;4983505;28;20203;-74
2023/12/22 07:51:19;;;;;;;12.67;3.53;;;6.50;99.90;;;;;;5008526;28;20229;-74
2023/12/22 07:53:46;;;;;;;7.83;2.53;;;6.60;99.90;;;;;;5006234;28;20200;-74
2023/12/22 07:56:14;;;;;;;10.73;3.43;;;6.60;99.90;;;;;;5000323;28;20209;-74
2023/12/22 07:58:43;;;;;;;12.53;3.87;;;6.70;99.90;;;;;;4995083;28;20194;-75
2023/12/22 08:01:11;;;;;;;8.60;3.20;;;6.80;99.90;;;;;;4995243;28;20221;-74
2023/12/22 08:03:39;;;;;;;10.50;2.80;;;6.80;99.90;;;;;;4994961;28;20234;-74
2023/12/22 08:06:08;;;;;;;7.50;2.80;;;6.80;99.90;;;;;;4991614;28;20214;-75
2023/12/22 08:08:36;;;;;;;9.80;2.87;;;6.90;99.90;;;;;;4999000;28;20202;-77
2023/12/22 08:11:04;;;;;;;9.20;2.60;;;6.90;99.90;;;;;;4994605;28;20226;-75
2023/12/22 08:13:31;;;;;;;9.73;2.93;;;7.00;99.90;;;;;;5011253;28;20207;-78
2023/12/22 08:15:58;;;;;;;6.30;2.23;;;7.10;99.90;;;;;;5012512;28;20201;-77
2023/12/22 08:18:26;;;;;;;9.40;2.87;;;7.20;99.90;;;;;;5009407;28;20231;-75
2023/12/22 08:20:54;;;;;;;12.00;3.97;;;7.20;99.90;;;;;;4992707;28;20573;-75
2023/12/22 08:23:22;;;;;;;8.03;2.70;;;7.30;99.90;;;;;;4990849;28;20215;-75
2023/12/22 08:25:49;;;;;;;8.53;3.00;;;7.40;99.90;;;;;;4991023;28;20199;-74
2023/12/22 08:28:17;;;;;;;12.30;3.10;;;7.50;99.90;;;;;;4974889;28;20200;-75
2023/12/22 08:30:44;;;;;;;12.47;3.70;;;7.60;99.90;;;;;;4991352;28;20221;-75
2023/12/22 08:33:12;;;;;;;16.37;4.00;;;7.70;99.90;;;;;;4997718;28;20215;-75
2023/12/22 08:35:40;;;;;;;21.40;4.47;;;7.80;99.90;;;;;;4993830;28;20210;-75
2023/12/22 08:38:09;;;;;;;16.00;4.40;;;7.80;99.90;;;;;;4995486;28;20654;-75
2023/12/22 08:40:36;;;;;;;12.17;3.83;;;7.80;99.90;;;;;;4998338;28;20219;-75
2023/12/22 08:43:06;;;;;;;11.40;3.30;;;7.90;99.90;;;;;;5000025;28;20218;-75
2023/12/22 08:45:33;;;;;;;10.37;3.23;;;7.90;99.90;;;;;;4979234;28;20211;-75
2023/12/22 08:48:02;;;;;;;14.43;3.47;;;7.90;99.90;;;;;;4997441;28;20211;-74
2023/12/22 08:50:31;;;;;;;16.73;4.57;;;8.00;99.90;;;;;;5014263;28;20220;-75
2023/12/22 08:53:01;;;;;;;13.43;4.63;;;8.00;99.90;;;;;;5024617;28;20203;-75
2023/12/22 08:55:30;;;;;;;11.27;3.87;;;8.00;99.90;;;;;;5014774;28;20207;-75
2023/12/22 08:57:57;;;;;;;20.80;5.10;;;8.10;99.90;;;;;;5014341;28;20203;-75
2023/12/22 09:00:24;;;;;;;15.70;4.07;;;8.10;99.90;;;;;;5013921;28;20220;-75
2023/12/22 09:02:53;;;;;;;17.30;4.30;;;8.10;99.90;;;;;;4997537;28;20661;-75
2023/12/22 09:05:21;;;;;;;21.93;5.47;;;8.10;99.90;;;;;;5015406;28;20199;-75
2023/12/22 09:07:48;;;;;;;18.17;4.93;;;8.10;99.90;;;;;;5022757;28;20203;-75
2023/12/22 09:10:16;;;;;;;14.90;4.27;;;8.10;99.90;;;;;;5023950;28;20223;-75
2023/12/22 09:12:45;;;;;;;16.63;5.33;;;8.20;99.90;;;;;;5012813;28;20573;-75
2023/12/22 09:15:12;;;;;;;22.07;5.20;;;8.10;99.90;;;;;;5017106;28;20196;-75
2023/12/22 09:17:41;;;;;;;17.73;4.97;;;8.20;99.90;;;;;;5015190;28;20215;-75
2023/12/22 09:20:09;;;;;;;17.23;4.77;;;8.20;99.90;;;;;;5006009;28;20239;-75
2023/12/22 09:22:36;;;;;;;22.30;5.30;;;8.20;99.90;;;;;;5011155;28;20207;-75
2023/12/22 09:25:04;;;;;;;18.47;4.90;;;8.30;99.90;;;;;;5024207;28;20222;-75
2023/12/22 09:27:32;;;;;;;14.90;4.47;;;8.30;99.90;;;;;;5011014;28;20203;-75
2023/12/22 09:30:00;;;;;;;19.50;4.83;;;8.10;99.90;;;;;;5009929;28;20220;-75
2023/12/22 09:32:28;;;;;;;13.20;3.97;;;8.20;99.90;;;;;;5001675;28;20191;-75
2023/12/22 09:34:58;;;;;;;14.03;3.53;;;8.10;99.90;;;;;;5030109;28;20207;-76
2023/12/22 09:37:26;;;;;;;13.33;3.17;;;8.10;99.90;;;;;;5031501;28;20529;-75
2023/12/22 09:39:53;;;;;;;9.03;3.10;;;8.00;99.90;;;;;;5015704;28;20219;-75
2023/12/22 09:42:38;;;;;;;11.17;2.90;;;8.00;99.90;;;;;;5004314;28;20212;-75
2023/12/22 09:45:09;;;;;;;9.80;2.87;;;8.00;99.90;;;;;;5011196;28;20214;-75
2023/12/22 09:47:36;;;;;;;11.43;3.40;;;8.00;99.90;;;;;;4999019;28;20199;-75
2023/12/22 09:50:05;;;;;;;12.43;3.30;;;7.90;99.90;;;;;;4996742;28;20223;-75
2023/12/22 09:52:34;;;;;;;11.63;3.23;;;7.90;99.90;;;;;;5025679;28;20202;-75
2023/12/22 09:55:02;;;;;;;8.37;2.40;;;7.80;99.90;;;;;;5026395;28;20194;-76
2023/12/22 09:57:31;;;;;;;9.77;2.60;;;7.70;99.90;;;;;;5009955;28;20199;-76
2023/12/22 10:00:01;;;;;;;7.70;3.13;;;7.60;99.90;;;;;;4999966;28;20224;-76
2023/12/22 10:02:41;;;;;;;7.77;2.20;;;7.60;99.90;;;;;;5030133;28;20668;-76
2023/12/22 10:05:10;;;;;;;9.93;3.23;;;7.50;99.90;;;;;;4997298;28;20569;-75
2023/12/22 10:07:38;;;;;;;7.63;2.50;;;7.50;99.90;;;;;;5017580;28;20198;-76
2023/12/22 10:10:09;;;;;;;8.50;2.50;;;7.60;99.90;;;;;;4997487;28;20239;-75
2023/12/22 10:12:39;;;;;;;11.27;2.80;;;7.70;99.90;;;;;;5033129;28;20202;-76
2023/12/22 10:15:40;;;;;;;;;;;;;;;;;;;;;
2023/12/22 10:18:36;;;;;;;8.43;2.70;;;7.50;99.90;;;;;;4973561;28;20212;-76
2023/12/22 10:21:36;;;;;;;6.10;3.33;;;7.60;99.90;;;;;;4995341;28;20235;-77
2023/12/22 10:25:08;;;;;;;;;;;;;;;;;;;;;
2023/12/22 10:28:42;;;;;;;;;;;;;;;;;;;;;
2023/12/22 10:32:14;;;;;;;;;;;;;;;;;;;;;
2023/12/22 10:35:25;;;;;;;9.83;3.47;;;7.60;99.90;;;;;;4857586;29;20216;-74
2023/12/22 10:38:42;;;;;;;;;;;;;;;;;;;;;
2023/12/22 10:41:22;;;;;;;10.83;3.03;;;7.60;99.90;;;;;;4850641;29;20236;-75
2023/12/22 10:44:22;;;;;;;7.83;2.57;;;7.70;99.90;;;;;;4925284;28;20215;-74
2023/12/22 10:47:11;;;;;;;;;;;;;;;;;;;;;
2023/12/22 10:50:12;;;;;;;;;;;;;;;;;;;;;
2023/12/22 10:53:34;;;;;;;;;;;;;;;;;;;;;
2023/12/22 10:56:12;;;;;;;7.70;3.70;;;7.80;99.90;;;;;;4984065;28;20211;-75
2023/12/22 10:58:45;;;;;;;9.47;3.27;;;7.90;99.90;;;;;;5013208;28;20214;-74
2023/12/22 11:01:14;;;;;;;12.67;3.37;;;8.00;99.90;;;;;;5002883;28;20231;-75
2023/12/22 11:03:45;;;;;;;8.40;2.80;;;8.00;99.90;;;;;;4996711;28;20210;-75
2023/12/22 11:06:16;;;;;;;7.93;2.93;;;8.10;99.90;;;;;;4999271;28;20227;-74
2023/12/22 11:08:44;;;;;;;10.10;2.87;;;8.10;99.90;;;;;;4996163;28;20203;-74
2023/12/22 11:11:17;;;;;;;9.47;2.40;;;8.10;99.90;;;;;;5003143;28;20692;-75
2023/12/22 11:13:46;;;;;;;6.20;2.70;;;8.20;99.90;;;;;;4999569;28;20208;-75
2023/12/22 11:16:16;;;;;;;6.33;2.20;;;8.20;99.90;;;;;;4994839;28;20187;-74
2023/12/22 11:18:44;;;;;;;5.77;1.90;;;8.20;99.90;;;;;;4993433;28;20208;-75
2023/12/22 11:21:13;;;;;;;6.53;2.53;;;8.20;99.90;;;;;;5017211;28;20230;-75
2023/12/22 11:23:58;;;;;;;4.87;1.93;;;8.20;99.90;;;;;;5000086;28;20206;-77
2023/12/22 11:26:31;;;;;;;4.50;1.90;;;8.30;99.90;;;;;;4986756;28;20196;-75
2023/12/22 11:29:00;;;;;;;5.40;1.40;;;9.60;99.90;;;;;;4995594;28;20203;-75
2023/12/22 11:31:31;;;;;;;3.73;1.47;;;9.90;99.90;;;;;;4994477;28;20227;-75
2023/12/22 11:34:00;;;;;;;4.47;1.50;;;9.50;99.90;;;;;;4995925;28;20211;-77
2023/12/22 11:36:59;;;;;;;3.80;1.20;;;8.70;99.90;;;;;;5009343;28;20191;-75
2023/12/22 11:39:27;;;;;;;4.77;1.80;;;8.40;99.90;;;;;;4994671;28;20556;-75
2023/12/22 11:41:55;;;;;;;3.87;1.47;;;8.30;99.90;;;;;;4997995;28;20227;-75
2023/12/22 11:44:24;;;;;;;4.93;1.60;;;8.30;99.90;;;;;;4997379;28;20211;-75
2023/12/22 11:47:04;;;;;;;3.60;1.60;;;8.30;99.90;;;;;;5019308;28;20199;-74
2023/12/22 11:49:35;;;;;;;2.43;1.50;;;8.20;99.90;;;;;;4999432;28;20203;-75
2023/12/22 11:52:44;;;;;;;3.60;1.27;;;8.30;99.90;;;;;;4994087;28;20565;-76
2023/12/22 11:55:40;;;;;;;3.77;1.80;;;8.20;99.90;;;;;;4998898;28;20199;-75
2023/12/22 11:58:43;;;;;;;4.20;2.00;;;8.20;99.90;;;;;;5008287;28;20649;-75
2023/12/22 12:01:59;;;;;;;3.33;1.60;;;8.20;99.90;;;;;;4989059;28;20223;-75
2023/12/22 12:04:28;;;;;;;2.80;1.63;;;8.20;99.90;;;;;;4996592;28;20209;-75
2023/12/22 12:07:38;;;;;;;3.67;1.90;;;8.20;99.90;;;;;;4994533;28;20704;-75
2023/12/22 12:10:06;;;;;;;5.10;1.30;;;8.20;99.90;;;;;;4999316;28;20219;-75
2023/12/22 12:12:34;;;;;;;3.07;1.10;;;8.20;99.90;;;;;;5011188;28;20199;-75
2023/12/22 12:15:08;;;;;;;2.60;1.10;;;8.20;99.90;;;;;;5006813;28;20225;-75
2023/12/22 12:17:39;;;;;;;3.77;1.77;;;8.20;99.90;;;;;;5017323;28;20198;-75
2023/12/22 12:20:10;;;;;;;2.97;1.00;;;8.30;99.90;;;;;;5006869;28;20231;-75
2023/12/22 12:22:39;;;;;;;1.50;1.23;;;8.30;99.90;;;;;;5027755;28;20546;-75
2023/12/22 12:25:10;;;;;;;4.60;1.10;;;8.40;99.90;;;;;;5015795;28;20731;-75
2023/12/22 12:27:39;;;;;;;1.63;0.93;;;8.40;99.90;;;;;;5016348;28;20553;-76
2023/12/22 12:30:14;;;;;;;2.03;1.00;;;8.40;99.90;;;;;;5005926;28;20215;-75
2023/12/22 12:32:45;;;;;;;3.33;0.67;;;8.40;99.90;;;;;;5012086;28;20203;-75
2023/12/22 12:35:14;;;;;;;3.17;1.27;;;8.50;99.90;;;;;;5001424;28;20218;-76
2023/12/22 12:37:51;;;;;;;2.20;1.10;;;8.50;99.90;;;;;;5019410;28;20538;-75
2023/12/22 12:40:21;;;;;;;2.10;1.60;;;8.60;99.90;;;;;;4999180;28;20215;-75
2023/12/22 12:43:03;;;;;;;3.50;1.97;;;8.60;99.90;;;;;;5030016;28;20214;-75
2023/12/22 12:45:30;;;;;;;5.67;2.07;;;8.50;99.90;;;;;;5009397;28;20608;-75
2023/12/22 12:47:58;;;;;;;3.33;1.80;;;8.60;99.90;;;;;;5024865;28;20212;-75
2023/12/22 12:50:28;;;;;;;3.83;2.30;;;8.70;99.90;;;;;;5005298;28;20235;-75
2023/12/22 12:52:56;;;;;;;9.00;2.50;;;8.80;99.90;;;;;;5002962;28;20188;-75
2023/12/22 12:55:25;;;;;;;5.10;2.43;;;8.90;99.90;;;;;;5016835;28;20192;-75
2023/12/22 12:57:53;;;;;;;4.87;2.60;;;8.90;99.90;;;;;;5012769;28;20230;-75
2023/12/22 13:00:25;;;;;;;3.27;2.53;;;9.00;99.90;;;;;;5016309;28;20711;-75
2023/12/22 13:03:06;;;;;;;4.93;2.30;;;9.00;99.90;;;;;;5021761;28;20223;-75
2023/12/22 13:05:36;;;;;;;4.40;1.90;;;9.10;99.90;;;;;;5021181;28;20665;-75
2023/12/22 13:08:42;;;;;;;1.37;1.20;;;9.10;99.90;;;;;;5000999;28;20191;-75
2023/12/22 13:11:10;;;;;;;4.20;1.50;;;9.10;99.90;;;;;;5007507;28;20222;-75
2023/12/22 13:13:42;;;;;;;1.80;1.33;;;9.20;99.90;;;;;;4995069;28;20211;-75
2023/12/22 13:16:10;;;;;;;1.33;1.00;;;9.20;99.90;;;;;;5008921;28;20207;-75
2023/12/22 13:18:45;;;;;;;1.67;1.00;;;9.10;99.90;;;;;;5005374;28;20203;-75
2023/12/22 13:21:42;;;;;;;4.00;1.00;;;9.10;99.90;;;;;;5006155;28;20235;-74
2023/12/22 13:27:45;;;;;;;3.70;1.33;;;9.10;99.90;;;;;;5030483;22;20232;-78
2023/12/22 13:30:13;;;;;;;2.00;1.20;;;9.00;99.90;;;;;;4999928;28;20203;-78